createdAt,value
2023-01-25T00:02:20.990Z,45.60
2023-01-25T00:04:49.270Z,56.90
2023-01-25T00:07:17.529Z,58.20
2023-01-25T00:09:45.819Z,56.20
2023-01-25T00:12:13.952Z,51.10
2023-01-25T00:14:42.101Z,58.30
2023-01-25T00:17:10.295Z,63.50
2023-01-25T00:19:40.588Z,59.80
2023-01-25T00:22:08.742Z,54.20
2023-01-25T00:24:36.907Z,51.90
2023-01-25T00:27:06.392Z,47.30
2023-01-25T00:29:41.868Z,55.50
2023-01-25T00:32:15.342Z,49.20
2023-01-25T00:34:48.967Z,55.50
2023-01-25T00:37:35.533Z,55.40
2023-01-25T00:40:05.963Z,52.90
2023-01-25T00:42:34.313Z,49.00
2023-01-25T00:45:06.162Z,48.20
2023-01-25T00:47:41.952Z,45.60
2023-01-25T00:50:11.732Z,46.20
2023-01-25T00:52:41.123Z,48.70
2023-01-25T00:55:10.238Z,44.00
2023-01-25T00:57:38.644Z,49.70
2023-01-25T01:00:07.513Z,57.20
2023-01-25T01:02:35.736Z,56.50
2023-01-25T01:05:04.245Z,54.00
2023-01-25T01:07:33.549Z,54.30
2023-01-25T01:10:01.828Z,53.40
2023-01-25T01:12:30.102Z,71.00
2023-01-25T01:15:02.770Z,60.70
2023-01-25T01:17:31.020Z,49.80
2023-01-25T01:19:59.255Z,54.60
2023-01-25T01:22:27.432Z,46.80
2023-01-25T01:24:55.600Z,50.20
2023-01-25T01:27:23.680Z,46.10
2023-01-25T01:29:52.343Z,44.80
2023-01-25T01:32:20.634Z,46.00
2023-01-25T01:37:20.195Z,43.00
2023-01-25T01:39:48.367Z,41.80
2023-01-25T01:42:16.486Z,44.90
2023-01-25T01:44:52.702Z,48.00
2023-01-25T01:47:25.790Z,49.30
2023-01-25T01:50:04.907Z,52.60
2023-01-25T01:52:37.476Z,50.20
2023-01-25T01:55:13.476Z,48.10
2023-01-25T01:58:00.516Z,52.20
2023-01-25T02:00:33.250Z,54.90
2023-01-25T02:03:03.016Z,59.80
2023-01-25T02:05:47.730Z,59.10
2023-01-25T02:08:16.033Z,60.20
2023-01-25T02:10:44.476Z,59.20
2023-01-25T02:13:13.136Z,60.50
2023-01-25T02:15:51.006Z,55.20
2023-01-25T02:18:20.254Z,55.90
2023-01-25T02:20:57.992Z,48.80
2023-01-25T02:24:07.978Z,47.30
2023-01-25T02:26:40.704Z,48.10
2023-01-25T02:29:11.524Z,47.70
2023-01-25T02:31:46.201Z,51.20
2023-01-25T02:34:16.653Z,46.90
2023-01-25T02:36:44.917Z,46.30
2023-01-25T02:39:20.073Z,48.60
2023-01-25T02:41:48.813Z,49.90
2023-01-25T02:44:22.235Z,55.50
2023-01-25T02:46:50.610Z,59.70
2023-01-25T02:49:19.414Z,57.60
2023-01-25T02:51:52.523Z,55.80
2023-01-25T02:54:21.009Z,57.40
2023-01-25T02:56:49.291Z,61.80
2023-01-25T02:59:19.177Z,59.80
2023-01-25T03:01:50.773Z,63.60
2023-01-25T03:04:18.956Z,68.10
2023-01-25T03:06:49.196Z,59.40
2023-01-25T03:09:18.634Z,61.00
2023-01-25T03:11:48.199Z,58.20
2023-01-25T03:14:19.623Z,64.10
2023-01-25T03:19:17.220Z,58.80
2023-01-25T03:21:46.847Z,62.70
2023-01-25T03:24:15.501Z,65.20
2023-01-25T03:27:05.930Z,65.60
2023-01-25T03:29:42.271Z,64.70
2023-01-25T03:32:14.973Z,64.90
2023-01-25T03:34:43.507Z,68.70
2023-01-25T03:37:12.135Z,64.40
2023-01-25T03:39:41.471Z,56.40
2023-01-25T03:42:10.014Z,58.80
2023-01-25T03:44:38.222Z,57.80
2023-01-25T03:47:06.606Z,59.00
2023-01-25T03:49:34.969Z,56.20
2023-01-25T03:52:04.102Z,61.80
2023-01-25T03:54:45.650Z,61.50
2023-01-25T03:57:17.560Z,56.10
2023-01-25T04:02:59.805Z,42.80
2023-01-25T04:05:28.621Z,63.60
2023-01-25T04:08:01.687Z,40.10
2023-01-25T04:39:16.155Z,72.10
2023-01-25T04:41:44.847Z,82.30
2023-01-25T04:44:14.153Z,80.20
2023-01-25T04:46:42.675Z,91.70
2023-01-25T04:49:10.854Z,92.70
2023-01-25T04:51:42.087Z,68.70
2023-01-25T04:54:10.415Z,87.00
2023-01-25T04:56:40.108Z,89.50
2023-01-25T04:59:09.276Z,79.60
2023-01-25T05:01:37.571Z,83.70
2023-01-25T05:04:07.294Z,92.90
2023-01-25T05:06:43.036Z,84.60
2023-01-25T05:09:11.239Z,89.10
2023-01-25T05:11:40.964Z,80.00
2023-01-25T05:14:13.524Z,75.20
2023-01-25T05:16:43.711Z,95.40
2023-01-25T05:19:12.429Z,91.80
2023-01-25T05:21:58.345Z,91.70
2023-01-25T05:24:33.184Z,82.70
2023-01-25T05:27:04.182Z,88.80
2023-01-25T05:29:51.322Z,86.40
2023-01-25T05:32:24.751Z,80.50
2023-01-25T05:34:53.545Z,87.90
2023-01-25T05:37:21.847Z,86.30
2023-01-25T05:39:56.143Z,80.60
2023-01-25T05:42:25.225Z,74.10
2023-01-25T05:44:54.842Z,86.90
2023-01-25T05:47:23.365Z,85.10
2023-01-25T05:49:51.712Z,83.10
2023-01-25T05:52:32.456Z,78.00
2023-01-25T05:55:01.352Z,74.70
2023-01-25T05:57:29.638Z,81.20
2023-01-25T05:59:59.056Z,85.60
2023-01-25T06:02:27.324Z,78.80
2023-01-25T06:04:55.514Z,77.00
2023-01-25T06:07:24.823Z,75.00
2023-01-25T06:09:53.479Z,75.30
2023-01-25T06:12:23.539Z,89.50
2023-01-25T06:14:54.129Z,82.70
2023-01-25T06:17:22.392Z,79.50
2023-01-25T06:19:58.251Z,88.10
2023-01-25T06:22:39.607Z,85.80
2023-01-25T06:25:08.613Z,72.50
2023-01-25T06:27:37.019Z,74.60
2023-01-25T06:30:05.505Z,72.90
2023-01-25T06:32:38.647Z,73.00
2023-01-25T06:35:09.651Z,73.10
2023-01-25T06:37:38.698Z,75.00
2023-01-25T06:40:07.553Z,68.90
2023-01-25T06:42:36.019Z,50.80
2023-01-25T06:45:04.953Z,61.70
2023-01-25T06:47:33.199Z,73.50
2023-01-25T06:50:05.233Z,66.60
2023-01-25T06:52:36.607Z,47.30
2023-01-25T06:55:08.458Z,58.20
2023-01-25T06:57:36.728Z,54.20
2023-01-25T07:00:06.070Z,51.80
2023-01-25T07:02:34.371Z,57.10
2023-01-25T07:05:02.776Z,49.50
2023-01-25T07:07:31.064Z,57.10
2023-01-25T07:10:02.368Z,50.40
2023-01-25T07:12:30.961Z,53.40
2023-01-25T07:14:59.163Z,50.80
2023-01-25T07:17:27.271Z,55.30
2023-01-25T07:19:55.336Z,53.60
2023-01-25T07:22:23.689Z,53.00
2023-01-25T07:25:03.328Z,65.90
2023-01-25T07:27:34.411Z,61.80
2023-01-25T07:30:03.324Z,49.60
2023-01-25T07:32:34.562Z,63.50
2023-01-25T07:35:02.795Z,56.50
2023-01-25T07:37:31.053Z,58.10
2023-01-25T07:39:59.147Z,58.80
2023-01-25T07:42:27.319Z,55.00
2023-01-25T07:45:12.388Z,56.80
2023-01-25T07:47:45.818Z,49.70
2023-01-25T07:50:14.277Z,56.50
2023-01-25T07:52:43.098Z,54.20
2023-01-25T07:55:11.687Z,47.70
2023-01-25T07:57:40.348Z,50.60
2023-01-25T08:00:10.180Z,33.70
2023-01-25T08:02:43.864Z,39.40
2023-01-25T08:05:14.361Z,51.00
2023-01-25T08:07:42.527Z,41.40
2023-01-25T08:10:11.377Z,48.30
2023-01-25T08:12:39.759Z,51.30
2023-01-25T08:15:17.467Z,46.50
2023-01-25T08:17:45.676Z,48.40
2023-01-25T08:20:19.703Z,49.30
2023-01-25T08:22:47.874Z,46.70
2023-01-25T08:25:16.109Z,45.90
2023-01-25T08:27:44.337Z,38.80
2023-01-25T08:30:13.126Z,46.30
2023-01-25T08:32:41.282Z,44.10
2023-01-25T08:35:09.905Z,35.80
2023-01-25T08:37:38.337Z,37.00
2023-01-25T08:40:07.945Z,37.50
2023-01-25T08:42:36.740Z,32.90
2023-01-25T08:45:07.178Z,43.70
2023-01-25T08:47:36.371Z,39.50
2023-01-25T08:50:05.062Z,35.20
2023-01-25T08:52:33.310Z,36.20
2023-01-25T08:55:03.570Z,42.00
2023-01-25T08:57:31.692Z,35.10
2023-01-25T08:59:59.773Z,38.80
2023-01-25T09:02:28.148Z,41.20
2023-01-25T09:04:56.277Z,41.50
2023-01-25T09:07:24.520Z,38.90
2023-01-25T09:09:52.719Z,42.30
2023-01-25T09:12:20.957Z,42.20
2023-01-25T09:14:51.068Z,42.30
2023-01-25T09:17:19.149Z,39.90
2023-01-25T09:22:22.343Z,32.10
2023-01-25T09:24:53.044Z,34.80
2023-01-25T09:27:21.249Z,31.30
2023-01-25T09:30:01.067Z,32.50
2023-01-25T09:32:30.975Z,33.30
2023-01-25T09:34:59.398Z,33.20
2023-01-25T09:37:30.847Z,36.40
2023-01-25T09:39:59.054Z,38.50
2023-01-25T09:43:00.737Z,39.50
2023-01-25T09:45:35.088Z,43.80
2023-01-25T09:48:13.596Z,36.00
2023-01-25T09:50:52.175Z,40.00
2023-01-25T09:53:41.908Z,35.50
2023-01-25T09:56:27.898Z,36.60
2023-01-25T09:59:01.093Z,35.50
2023-01-25T10:01:56.015Z,42.20
2023-01-25T10:04:27.899Z,41.70
2023-01-25T10:07:16.174Z,42.50
2023-01-25T10:10:28.720Z,42.10
2023-01-25T10:12:56.998Z,41.40
2023-01-25T10:15:33.208Z,38.50
2023-01-25T10:18:18.392Z,46.70
2023-01-25T10:20:55.767Z,34.10
2023-01-25T10:23:46.089Z,42.60
2023-01-25T10:26:27.021Z,41.20
2023-01-25T10:29:00.146Z,44.70
2023-01-25T10:31:45.350Z,43.60
2023-01-25T10:34:56.279Z,41.80
2023-01-25T10:37:32.964Z,44.40
2023-01-25T10:40:01.137Z,44.30
2023-01-25T10:42:38.167Z,41.10
2023-01-25T10:45:14.901Z,28.40
2023-01-25T10:47:48.529Z,44.50
2023-01-25T10:50:46.588Z,38.80
2023-01-25T10:53:39.634Z,42.60
2023-01-25T10:56:30.025Z,48.30
2023-01-25T10:59:16.532Z,44.90
2023-01-25T11:01:45.071Z,41.60
2023-01-25T11:04:36.340Z,41.80
2023-01-25T11:07:06.431Z,41.50
2023-01-25T11:09:37.739Z,38.60
2023-01-25T11:12:12.150Z,43.50
2023-01-25T11:14:42.608Z,42.60
2023-01-25T11:17:26.952Z,36.60
2023-01-25T11:20:20.856Z,44.50
2023-01-25T11:22:54.457Z,43.20
2023-01-25T11:25:25.640Z,40.90
2023-01-25T11:28:25.024Z,39.60
2023-01-25T11:30:54.075Z,38.20
2023-01-25T11:33:23.025Z,37.40
2023-01-25T11:36:11.347Z,35.10
2023-01-25T11:38:51.787Z,37.60
2023-01-25T11:41:39.418Z,40.20
2023-01-25T11:44:29.626Z,35.50
2023-01-25T11:47:06.597Z,33.60
2023-01-25T11:50:02.813Z,29.90
2023-01-25T11:52:45.969Z,41.20
2023-01-25T11:55:38.997Z,38.70
2023-01-25T11:58:58.765Z,32.20
2023-01-25T12:01:38.843Z,35.20
2023-01-25T12:04:42.466Z,39.40
2023-01-25T12:07:48.638Z,30.00
2023-01-25T12:10:37.567Z,41.50
2023-01-25T12:13:21.416Z,37.30
2023-01-25T12:16:06.989Z,37.50
2023-01-25T12:18:55.424Z,40.40
2023-01-25T12:21:47.973Z,38.10
2023-01-25T12:24:52.411Z,36.00
2023-01-25T12:27:59.045Z,36.50
2023-01-25T12:30:39.356Z,36.70
2023-01-25T12:33:18.297Z,43.30
2023-01-25T12:35:59.552Z,29.10
2023-01-25T12:38:37.064Z,42.00
2023-01-25T12:41:08.484Z,36.90
2023-01-25T12:43:44.907Z,41.80
2023-01-25T12:46:29.850Z,40.80
2023-01-25T12:49:06.404Z,38.80
2023-01-25T12:51:42.415Z,25.20
2023-01-25T12:54:37.484Z,37.30
2023-01-25T12:57:27.208Z,42.80
2023-01-25T13:00:04.553Z,47.80
2023-01-25T13:02:50.676Z,45.30
2023-01-25T13:05:34.345Z,42.80
2023-01-25T13:08:23.219Z,51.60
2023-01-25T13:11:28.639Z,51.70
2023-01-25T13:14:31.075Z,53.20
2023-01-25T13:17:30.478Z,47.50
2023-01-25T13:19:59.975Z,48.20
2023-01-25T13:22:43.470Z,49.20
2023-01-25T13:25:20.517Z,58.10
2023-01-25T13:27:48.817Z,50.50
2023-01-25T13:30:16.876Z,51.90
2023-01-25T13:32:45.414Z,46.80
2023-01-25T13:35:44.828Z,45.70
2023-01-25T13:38:36.017Z,52.10
2023-01-25T13:41:14.487Z,51.90
2023-01-25T13:43:45.185Z,50.40
2023-01-25T13:46:22.180Z,53.80
2023-01-25T13:48:57.592Z,48.50
2023-01-25T13:51:29.720Z,49.60
2023-01-25T13:54:00.495Z,48.40
2023-01-25T13:56:35.444Z,45.90
2023-01-25T13:59:03.833Z,43.70
2023-01-25T14:01:35.491Z,51.10
2023-01-25T14:04:05.137Z,48.10
2023-01-25T14:06:38.356Z,44.30
2023-01-25T14:09:16.775Z,52.10
2023-01-25T14:12:08.858Z,53.10
2023-01-25T14:14:38.590Z,45.90
2023-01-25T14:17:22.203Z,49.90
2023-01-25T14:20:01.183Z,43.40
2023-01-25T14:22:31.618Z,42.70
2023-01-25T14:25:10.930Z,39.40
2023-01-25T14:27:51.556Z,40.10
2023-01-25T14:30:34.787Z,40.70
2023-01-25T14:33:24.777Z,39.70
2023-01-25T14:35:57.322Z,40.80
2023-01-25T14:38:31.611Z,39.30
2023-01-25T14:41:12.375Z,43.30
2023-01-25T14:43:49.298Z,44.00
2023-01-25T14:46:20.584Z,44.00
2023-01-25T14:48:48.881Z,38.90
2023-01-25T14:51:30.308Z,38.70
2023-01-25T14:54:05.239Z,37.50
2023-01-25T14:56:45.709Z,39.00
2023-01-25T14:59:22.176Z,37.10
2023-01-25T15:01:54.915Z,42.80
2023-01-25T15:04:26.700Z,39.90
2023-01-25T15:06:57.464Z,38.20
2023-01-25T15:09:37.526Z,44.50
2023-01-25T15:12:26.095Z,39.70
2023-01-25T15:14:56.195Z,40.00
2023-01-25T15:17:45.556Z,42.30
2023-01-25T15:20:39.669Z,44.80
2023-01-25T15:23:23.180Z,37.30
2023-01-25T15:25:56.708Z,39.20
2023-01-25T15:28:27.804Z,34.40
2023-01-25T15:30:58.454Z,34.60
2023-01-25T15:35:57.483Z,38.50
2023-01-25T15:38:26.095Z,39.60
2023-01-25T15:41:00.471Z,42.70
2023-01-25T15:43:28.970Z,54.40
2023-01-25T15:46:28.103Z,40.90
2023-01-25T15:48:59.240Z,29.00
2023-01-25T15:51:35.324Z,40.30
2023-01-25T15:54:05.548Z,38.60
2023-01-25T15:56:37.327Z,38.20
2023-01-25T15:59:08.231Z,44.80
2023-01-25T16:01:36.410Z,39.10
2023-01-25T16:04:04.689Z,41.30
2023-01-25T16:06:42.010Z,45.20
2023-01-25T16:09:15.162Z,47.80
2023-01-25T16:11:43.749Z,46.80
2023-01-25T16:14:13.712Z,49.30
2023-01-25T16:16:46.015Z,49.90
2023-01-25T16:19:16.541Z,48.10
2023-01-25T16:21:44.729Z,51.00
2023-01-25T16:24:13.445Z,49.00
2023-01-25T16:26:48.380Z,47.00
2023-01-25T16:29:16.540Z,49.20
2023-01-25T16:31:44.785Z,46.80
2023-01-25T16:34:12.999Z,48.20
2023-01-25T16:36:41.452Z,53.30
2023-01-25T16:39:16.540Z,47.70
2023-01-25T16:41:44.641Z,45.80
2023-01-25T16:44:13.307Z,48.00
2023-01-25T16:46:41.713Z,49.50
2023-01-25T16:49:19.418Z,48.50
2023-01-25T16:51:51.930Z,46.80
2023-01-25T16:54:21.305Z,55.80
2023-01-25T16:56:51.163Z,44.80
2023-01-25T16:59:20.435Z,51.00
2023-01-25T17:01:49.168Z,45.20
2023-01-25T17:04:18.285Z,45.60
2023-01-25T17:06:50.374Z,45.10
2023-01-25T17:09:24.017Z,48.60
2023-01-25T17:11:54.371Z,40.20
2023-01-25T17:14:24.582Z,44.80
2023-01-25T17:16:53.809Z,48.00
2023-01-25T17:19:23.852Z,45.20
2023-01-25T17:21:52.104Z,50.20
2023-01-25T17:24:21.904Z,56.90
2023-01-25T17:26:52.719Z,53.50
2023-01-25T17:29:22.103Z,46.30
2023-01-25T17:31:51.382Z,51.70
2023-01-25T17:34:19.939Z,47.50
2023-01-25T17:36:52.709Z,51.20
2023-01-25T17:39:23.233Z,48.80
2023-01-25T17:41:54.650Z,51.10
2023-01-25T17:44:23.615Z,46.10
2023-01-25T17:46:52.099Z,52.00
2023-01-25T17:49:25.422Z,49.00
2023-01-25T17:51:53.719Z,49.50
2023-01-25T17:54:25.043Z,51.10
2023-01-25T17:56:54.816Z,49.30
2023-01-25T17:59:25.880Z,51.80
2023-01-25T18:01:54.212Z,45.10
2023-01-25T18:04:22.656Z,48.00
2023-01-25T18:06:51.187Z,49.20
2023-01-25T18:09:19.442Z,54.10
2023-01-25T18:11:48.317Z,48.50
2023-01-25T18:14:17.504Z,53.80
2023-01-25T18:16:46.025Z,51.60
2023-01-25T18:19:14.237Z,44.60
2023-01-25T18:21:43.429Z,55.70
2023-01-25T18:24:27.830Z,46.70
2023-01-25T18:27:09.140Z,47.80
2023-01-25T18:29:56.044Z,54.50
2023-01-25T18:32:24.378Z,52.90
2023-01-25T18:34:55.518Z,55.20
2023-01-25T18:37:28.103Z,53.90
2023-01-25T18:39:56.950Z,49.10
2023-01-25T18:42:27.331Z,52.10
2023-01-25T18:44:58.134Z,51.80
2023-01-25T18:47:29.366Z,58.00
2023-01-25T18:49:57.810Z,63.40
2023-01-25T18:52:26.367Z,59.30
2023-01-25T18:54:54.828Z,55.30
2023-01-25T18:57:23.604Z,52.00
2023-01-25T18:59:52.250Z,54.50
2023-01-25T19:02:21.443Z,52.40
2023-01-25T19:04:54.640Z,58.40
2023-01-25T19:07:22.903Z,61.50
2023-01-25T19:09:50.938Z,54.70
2023-01-25T19:12:19.034Z,60.10
2023-01-25T19:14:47.245Z,61.60
2023-01-25T19:17:17.249Z,63.30
2023-01-25T19:19:47.793Z,62.20
2023-01-25T19:22:21.724Z,65.60
2023-01-25T19:24:53.284Z,57.70
2023-01-25T19:29:54.377Z,59.00
2023-01-25T19:34:51.631Z,61.60
2023-01-25T19:37:20.186Z,64.10
2023-01-25T19:39:51.871Z,59.00
